Have a Safe July 4th! 

Flight Track Log - Related Links

Times and Time Zones

All times are in EDT time to prevent confusion due to time zone crossing. See the N498QS flight status page for this flight to view local times or setup timezone preferences in your user account.

Time Position Orientation Groundspeed Altitude Reporting Facility
EDT Latitude Longitude Course Direction KTS MPH feet Rate Location/Type
Tue 05:07:30 PM 40.7333 -74.4333 166° South 194 223 2,100  Level New York TRACON
Tue 05:08:30 PM 40.6833 -74.4167 166° South 224 258 3,900 1,750 Climbing New York TRACON
Tue 05:09:30 PM 40.6167 -74.4000 169° South 276 318 5,600 3,250 Climbing New York TRACON
Tue 05:10:30 PM 40.5833 -74.4833 242° Southwest 289 333 10,400 3,433 Climbing New York TRACON
Tue 05:12:30 PM 40.6228 -74.7164 283° West 346 398 15,900 1,921 Climbing New York Center
Tue 05:13:28 PM 40.6436 -74.8381 283° West 353 406 16,100 1,068 Climbing New York Center
Tue 05:14:28 PM 40.6642 -74.9650 282° West 353 406 18,000 1,934 Climbing New York Center
Tue 05:15:29 PM 40.6825 -75.0947 281° West 353 406 20,000 992 Climbing New York Center
Tue 05:16:29 PM 40.6631 -75.2250 259° West 359 413 20,000  Level New York Center
Tue 05:17:30 PM 40.6106 -75.3444 240° Southwest 366 421 20,000  Level New York Center
Tue 05:18:30 PM 40.5542 -75.4556 236° Southwest 366 421 20,000  Level New York Center
Tue 05:19:28 PM 40.4908 -75.5794 236° Southwest 378 435 20,000  Level New York Center
Tue 05:20:29 PM 40.4272 -75.7033 236° Southwest 404 465 20,000  Level New York Center
Tue 05:21:30 PM 40.3636 -75.8294 237° Southwest 420 483 20,000  Level New York Center
Tue 05:22:30 PM 40.3025 -75.9392 234° Southwest 425 489 20,000 -103 Level New York Center
Tue 05:23:27 PM 40.2364 -76.0650 235° Southwest 425 489 19,800 -712 Descending New York Center
Tue 05:24:28 PM 40.1681 -76.1981 236° Southwest 420 483 18,600 -942 Descending New York Center
Tue 05:25:28 PM 40.1081 -76.3183 237° Southwest 412 474 17,900 -793 Descending New York Center
Tue 05:26:29 PM 40.0569 -76.4283 239° Southwest 400 460 17,000 -994 Descending New York Center
Tue 05:28:11 PM 39.9500 -76.6500 238° Southwest 391 450 15,200 -741 Descending Potomac TRACON
Tue 05:29:11 PM 39.9000 -76.7667 241° Southwest 386 444 15,000 -99 Descending Potomac TRACON
Tue 05:30:12 PM 39.8500 -76.8833 241° Southwest 384 442 15,000  Level Potomac TRACON
Tue 05:31:12 PM 39.7833 -77.0000 233° Southwest 385 443 15,000 -474 Level Potomac TRACON
Tue 05:32:06 PM 39.7500 -77.1000 247° West 381 438 14,100 -1,400 Descending Potomac TRACON
Tue 05:33:12 PM 39.6833 -77.2167 233° Southwest 355 409 12,200 -1,500 Descending Potomac TRACON
Tue 05:34:06 PM 39.6500 -77.2833 237° Southwest 323 372 11,100 -1,500 Descending Potomac TRACON
Tue 05:35:12 PM 39.5667 -77.3667 218° Southwest 289 333 9,200 -1,600 Descending Potomac TRACON
Tue 05:36:06 PM 39.5167 -77.4167 218° Southwest 280 322 7,900 -1,158 Descending Potomac TRACON
Tue 05:37:06 PM 39.4333 -77.4500 197° South 265 305 7,000 -474 Descending Potomac TRACON
Tue 05:38:00 PM 39.3833 -77.4500 180° South 236 272 7,000 -450 Level Potomac TRACON
Tue 05:39:06 PM 39.3167 -77.4500 180° South 229 264 6,100 -571 Descending Potomac TRACON
Tue 05:40:06 PM 39.2500 -77.4500 180° South 177 204 5,800 -545 Descending Potomac TRACON
Tue 05:41:07 PM 39.2167 -77.4500 180° South 162 186 5,000 -645 Descending Potomac TRACON
Tue 05:42:07 PM 39.1667 -77.4500 180° South 168 193 4,500 -900 Descending Potomac TRACON
Tue 05:43:07 PM 39.1167 -77.4500 180° South 169 194 3,200 -1,100 Descending Potomac TRACON
Tue 05:44:07 PM 39.0667 -77.4500 180° South 167 192 2,300 -895 Descending Potomac TRACON
Tue 05:45:01 PM 39.0333 -77.4667 201° Southwest 160 184 1,500 -850 Descending Potomac TRACON
Tue 05:46:07 PM 38.9833 -77.4667 180° South 144 166 600 -818 Descending Potomac TRACON
Tue 05:48:00 PM 38.9474 -77.4599 180° South  Level Estimated
Tue 05:55:00 PM 38.9474 -77.4599 349° North  Level Estimated
Tue 05:56:00 PM 38.9474 -77.4599 349° North  Level Estimated

Login

Don't have an account? Register now (free) for customized features, flight alerts, and more!